createdAt,value
2017-11-23T00:01:06.694Z,4.00
2017-11-23T00:03:40.272Z,4.10
2017-11-23T00:06:12.979Z,4.00
2017-11-23T00:08:45.653Z,4.10
2017-11-23T00:11:18.242Z,4.10
2017-11-23T00:13:50.715Z,4.20
2017-11-23T00:16:23.203Z,4.20
2017-11-23T00:18:55.772Z,4.20
2017-11-23T00:21:28.249Z,4.20
2017-11-23T00:24:00.791Z,4.20
2017-11-23T00:26:34.026Z,4.20
2017-11-23T00:29:06.598Z,4.20
2017-11-23T00:31:39.693Z,4.20
2017-11-23T00:34:13.033Z,4.20
2017-11-23T00:36:46.149Z,4.20
2017-11-23T00:39:18.626Z,4.20
2017-11-23T00:41:51.368Z,4.20
2017-11-23T00:44:24.667Z,4.20
2017-11-23T00:46:57.337Z,4.20
2017-11-23T00:49:29.984Z,4.20
2017-11-23T00:52:02.714Z,4.20
2017-11-23T00:54:35.247Z,4.30
2017-11-23T00:57:07.806Z,4.30
2017-11-23T00:59:40.324Z,4.30
2017-11-23T01:02:12.890Z,4.30
2017-11-23T01:04:45.480Z,4.40
2017-11-23T01:07:17.879Z,4.40
2017-11-23T01:09:50.431Z,4.40
2017-11-23T01:12:22.945Z,4.40
2017-11-23T01:14:55.477Z,4.40
2017-11-23T01:17:28.169Z,4.40
2017-11-23T01:20:00.612Z,4.40
2017-11-23T01:22:35.886Z,4.40
2017-11-23T01:25:08.460Z,4.40
2017-11-23T01:27:41.038Z,4.40
2017-11-23T01:30:13.742Z,4.40
2017-11-23T01:32:47.177Z,4.40
2017-11-23T01:35:19.711Z,4.40
2017-11-23T01:37:52.287Z,4.30
2017-11-23T01:40:24.896Z,4.40
2017-11-23T01:42:57.465Z,4.40
2017-11-23T01:45:29.880Z,4.30
2017-11-23T01:48:02.410Z,4.30
2017-11-23T01:50:35.018Z,4.30
2017-11-23T01:53:07.582Z,4.30
2017-11-23T01:55:41.361Z,4.30
2017-11-23T01:58:14.030Z,4.30
2017-11-23T02:00:47.344Z,4.30
2017-11-23T02:03:19.855Z,4.30
2017-11-23T02:05:53.138Z,4.20
2017-11-23T02:08:26.445Z,4.20
2017-11-23T02:10:59.876Z,4.10
2017-11-23T02:13:32.638Z,4.10
2017-11-23T02:16:05.313Z,4.10
2017-11-23T02:18:37.824Z,4.00
2017-11-23T02:21:10.511Z,4.00
2017-11-23T02:23:43.024Z,3.90
2017-11-23T02:26:16.362Z,3.90
2017-11-23T02:28:49.622Z,3.80
2017-11-23T02:31:22.627Z,3.80
2017-11-23T02:33:55.918Z,3.70
2017-11-23T02:36:28.599Z,3.70
2017-11-23T02:39:01.133Z,3.60
2017-11-23T02:41:34.468Z,3.50
2017-11-23T02:44:07.148Z,3.50
2017-11-23T02:46:39.577Z,3.50
2017-11-23T02:49:12.746Z,3.30
2017-11-23T02:51:45.523Z,3.30
2017-11-23T02:54:18.812Z,3.30
2017-11-23T02:56:52.215Z,3.30
2017-11-23T02:59:25.580Z,3.30
2017-11-23T03:01:58.317Z,3.20
2017-11-23T03:04:30.837Z,3.20
2017-11-23T03:07:04.059Z,3.10
2017-11-23T03:09:36.980Z,3.10
2017-11-23T03:12:09.496Z,3.10
2017-11-23T03:14:42.015Z,3.10
2017-11-23T03:17:15.234Z,3.10
2017-11-23T03:19:47.995Z,3.10
2017-11-23T03:22:20.484Z,3.00
2017-11-23T03:24:53.035Z,3.00
2017-11-23T03:27:26.990Z,3.00
2017-11-23T03:30:00.027Z,3.00
2017-11-23T03:32:33.388Z,3.00
2017-11-23T03:35:06.732Z,3.00
2017-11-23T03:37:39.269Z,2.90
2017-11-23T03:40:11.853Z,3.00
2017-11-23T03:42:44.416Z,2.90
2017-11-23T03:45:18.037Z,2.90
2017-11-23T03:47:50.774Z,2.90
2017-11-23T03:50:23.479Z,2.80
2017-11-23T03:52:56.690Z,2.80
2017-11-23T03:55:29.559Z,2.70
2017-11-23T03:58:02.793Z,2.70
2017-11-23T04:00:36.628Z,2.70
2017-11-23T04:03:09.394Z,2.70
2017-11-23T04:05:42.793Z,2.70
2017-11-23T04:08:15.568Z,2.70
2017-11-23T04:10:49.186Z,2.60
2017-11-23T04:13:21.921Z,2.60
2017-11-23T04:15:54.582Z,2.60
2017-11-23T04:18:27.814Z,2.60
2017-11-23T04:21:01.518Z,2.60
2017-11-23T04:23:34.201Z,2.60
2017-11-23T04:26:06.799Z,2.60
2017-11-23T04:28:40.259Z,2.60
2017-11-23T04:31:13.590Z,2.50
2017-11-23T04:33:46.988Z,2.50
2017-11-23T04:36:19.607Z,2.50
2017-11-23T04:38:52.036Z,2.50
2017-11-23T04:41:24.542Z,2.50
2017-11-23T04:43:57.099Z,2.40
2017-11-23T04:46:29.686Z,2.40
2017-11-23T04:49:09.021Z,2.40
2017-11-23T04:51:41.684Z,2.40
2017-11-23T04:54:15.715Z,2.30
2017-11-23T04:56:48.655Z,2.30
2017-11-23T04:59:21.309Z,2.30
2017-11-23T05:01:54.115Z,2.30
2017-11-23T05:04:26.707Z,2.30
2017-11-23T05:06:59.940Z,2.20
2017-11-23T05:09:32.412Z,2.20
2017-11-23T05:12:05.797Z,2.20
2017-11-23T05:14:39.148Z,2.20
2017-11-23T05:17:11.814Z,2.20
2017-11-23T05:19:44.264Z,2.10
2017-11-23T05:22:16.714Z,2.10
2017-11-23T05:24:49.293Z,2.10
2017-11-23T05:27:21.971Z,2.10
2017-11-23T05:29:54.486Z,2.10
2017-11-23T05:32:26.820Z,2.10
2017-11-23T05:34:59.568Z,2.10
2017-11-23T05:37:32.161Z,2.00
2017-11-23T05:40:04.755Z,2.00
2017-11-23T05:42:38.032Z,2.00
2017-11-23T05:45:11.156Z,2.00
2017-11-23T05:47:43.640Z,2.00
2017-11-23T05:50:17.039Z,2.00
2017-11-23T05:52:49.797Z,2.00
2017-11-23T05:55:22.223Z,2.00
2017-11-23T05:57:54.666Z,2.00
2017-11-23T06:00:27.175Z,2.00
2017-11-23T06:02:59.688Z,2.00
2017-11-23T06:05:32.348Z,1.90
2017-11-23T06:08:05.663Z,1.90
2017-11-23T06:10:38.216Z,1.90
2017-11-23T06:13:10.728Z,1.90
2017-11-23T06:15:43.383Z,1.90
2017-11-23T06:18:16.184Z,1.90
2017-11-23T06:20:48.786Z,1.90
2017-11-23T06:23:22.202Z,1.90
2017-11-23T06:25:55.144Z,1.90
2017-11-23T06:28:27.666Z,1.90
2017-11-23T06:31:01.060Z,2.00
2017-11-23T06:33:33.558Z,1.90
2017-11-23T06:36:06.296Z,2.00
2017-11-23T06:38:38.749Z,2.00
2017-11-23T06:41:11.446Z,2.00
2017-11-23T06:43:43.845Z,2.00
2017-11-23T06:46:17.070Z,2.00
2017-11-23T06:48:50.063Z,2.10
2017-11-23T06:51:22.667Z,2.10
2017-11-23T06:53:55.972Z,2.10
2017-11-23T06:56:28.722Z,2.10
2017-11-23T06:59:01.271Z,2.20
2017-11-23T07:01:35.312Z,2.20
2017-11-23T07:04:07.936Z,2.20
2017-11-23T07:06:40.592Z,2.30
2017-11-23T07:09:13.246Z,2.40
2017-11-23T07:11:45.867Z,2.40
2017-11-23T07:14:19.199Z,2.50
2017-11-23T07:16:52.024Z,2.60
2017-11-23T07:19:25.419Z,2.60
2017-11-23T07:21:58.007Z,2.70
2017-11-23T07:24:30.475Z,2.80
2017-11-23T07:27:03.190Z,3.00
2017-11-23T07:29:35.649Z,3.10
2017-11-23T07:32:08.913Z,3.20
2017-11-23T07:34:41.624Z,3.30
2017-11-23T07:37:15.693Z,3.70
2017-11-23T07:39:48.867Z,3.60
2017-11-23T07:42:21.692Z,3.90
2017-11-23T07:44:54.216Z,4.10
2017-11-23T07:47:26.776Z,4.40
2017-11-23T07:50:00.848Z,4.90
2017-11-23T07:52:34.529Z,5.30
2017-11-23T07:55:07.165Z,5.20
2017-11-23T07:57:39.709Z,5.60
2017-11-23T08:00:13.867Z,6.30
2017-11-23T08:02:46.643Z,6.30
2017-11-23T08:05:20.828Z,7.00
2017-11-23T08:07:53.244Z,7.00
2017-11-23T08:10:26.545Z,7.40
2017-11-23T08:12:58.887Z,7.90
2017-11-23T08:15:32.214Z,8.10
2017-11-23T08:18:05.623Z,8.40
2017-11-23T08:20:39.846Z,8.80
2017-11-23T08:23:13.021Z,9.00
2017-11-23T08:25:53.288Z,9.00
2017-11-23T08:28:25.735Z,9.30
2017-11-23T08:31:00.460Z,9.50
2017-11-23T08:33:33.700Z,9.80
2017-11-23T08:36:06.362Z,10.00
2017-11-23T08:38:38.721Z,10.30
2017-11-23T08:41:11.499Z,10.60
2017-11-23T08:43:44.960Z,10.80
2017-11-23T08:46:17.508Z,11.00
2017-11-23T08:48:50.145Z,11.20
2017-11-23T08:51:22.622Z,11.50
2017-11-23T08:53:56.117Z,11.70
2017-11-23T08:56:29.518Z,12.30
2017-11-23T08:59:02.388Z,12.30
2017-11-23T09:01:37.716Z,12.60
2017-11-23T09:04:10.450Z,12.80
2017-11-23T09:06:43.435Z,13.00
2017-11-23T09:09:16.916Z,13.20
2017-11-23T09:11:50.177Z,13.70
2017-11-23T09:14:23.052Z,13.60
2017-11-23T09:16:55.508Z,14.00
2017-11-23T09:19:28.944Z,14.10
2017-11-23T09:22:01.531Z,14.30
2017-11-23T09:24:34.841Z,14.60
2017-11-23T09:27:07.662Z,14.60
2017-11-23T09:29:40.418Z,14.80
2017-11-23T09:32:14.812Z,14.90
2017-11-23T09:34:48.640Z,15.20
2017-11-23T09:37:21.374Z,15.20
2017-11-23T09:39:53.969Z,15.30
2017-11-23T09:42:27.230Z,15.50
2017-11-23T09:45:00.019Z,15.50
2017-11-23T09:47:32.689Z,15.60
2017-11-23T09:50:06.128Z,15.60
2017-11-23T09:52:39.266Z,15.60
2017-11-23T09:55:11.775Z,15.70
2017-11-23T09:57:45.083Z,16.00
2017-11-23T10:00:18.041Z,16.00
2017-11-23T10:02:50.550Z,16.10
2017-11-23T10:05:23.290Z,16.00
2017-11-23T10:07:57.124Z,15.90
2017-11-23T10:10:29.806Z,15.90
2017-11-23T10:13:09.292Z,15.80
2017-11-23T10:15:42.897Z,15.80
2017-11-23T10:18:15.695Z,15.80
2017-11-23T10:20:48.286Z,15.70
2017-11-23T10:23:21.548Z,15.60
2017-11-23T10:25:54.953Z,15.60
2017-11-23T10:28:28.442Z,15.60
2017-11-23T10:31:02.027Z,15.60
2017-11-23T10:33:34.679Z,15.60
2017-11-23T10:36:08.024Z,15.60
2017-11-23T10:38:40.845Z,15.60
2017-11-23T10:41:14.168Z,15.60
2017-11-23T10:43:48.800Z,15.70
2017-11-23T10:46:22.135Z,15.70
2017-11-23T10:48:56.200Z,15.60
2017-11-23T10:51:29.120Z,15.60
2017-11-23T10:54:02.570Z,15.60
2017-11-23T10:56:35.097Z,15.60
2017-11-23T10:59:07.951Z,15.50
2017-11-23T11:01:41.307Z,15.50
2017-11-23T11:04:13.958Z,15.40
2017-11-23T11:06:46.461Z,15.40
2017-11-23T11:09:19.878Z,15.40
2017-11-23T11:11:52.315Z,15.50
2017-11-23T11:14:24.739Z,15.40
2017-11-23T11:16:58.039Z,15.50
2017-11-23T11:19:31.176Z,15.40
2017-11-23T11:22:04.025Z,15.40
2017-11-23T11:24:36.715Z,15.50
2017-11-23T11:27:09.981Z,15.50
2017-11-23T11:29:42.456Z,15.50
2017-11-23T11:32:15.165Z,15.50
2017-11-23T11:34:48.551Z,15.50
2017-11-23T11:37:21.028Z,15.60
2017-11-23T11:39:54.457Z,15.60
2017-11-23T11:42:28.564Z,15.60
2017-11-23T11:45:01.268Z,15.60
2017-11-23T11:47:34.709Z,15.60
2017-11-23T11:50:07.223Z,15.70
2017-11-23T11:52:39.870Z,15.60
2017-11-23T11:55:12.358Z,15.60
2017-11-23T11:57:45.726Z,15.60
2017-11-23T12:00:18.160Z,15.60
2017-11-23T12:02:50.726Z,15.60
2017-11-23T12:05:23.328Z,15.60
2017-11-23T12:07:55.950Z,15.60
2017-11-23T12:10:28.310Z,15.60
2017-11-23T12:13:01.558Z,15.60
2017-11-23T12:15:35.534Z,15.50
2017-11-23T12:18:26.716Z,15.50
2017-11-23T12:21:11.428Z,15.50
2017-11-23T12:23:44.738Z,15.50
2017-11-23T12:26:17.444Z,15.40
2017-11-23T12:32:02.769Z,15.20
2017-11-23T12:34:36.142Z,15.30
2017-11-23T12:37:09.417Z,15.20
2017-11-23T12:39:42.402Z,15.20
2017-11-23T12:42:14.994Z,15.10
2017-11-23T12:44:48.372Z,15.10
2017-11-23T12:47:20.996Z,15.10
2017-11-23T12:49:54.535Z,15.10
2017-11-23T12:52:27.956Z,15.10
2017-11-23T12:55:00.712Z,15.00
2017-11-23T12:57:34.050Z,15.00
2017-11-23T13:00:07.623Z,15.00
2017-11-23T13:02:40.034Z,15.00
2017-11-23T13:05:12.465Z,15.00
2017-11-23T13:07:45.004Z,15.00
2017-11-23T13:10:18.060Z,15.00
2017-11-23T13:12:52.067Z,15.00
2017-11-23T13:15:25.141Z,14.90
2017-11-23T13:17:58.248Z,14.90
2017-11-23T13:20:31.472Z,15.00
2017-11-23T13:23:04.604Z,14.90
2017-11-23T13:25:37.772Z,15.00
2017-11-23T13:28:11.964Z,15.00
2017-11-23T13:30:45.368Z,15.00
2017-11-23T13:33:19.312Z,14.90
2017-11-23T13:35:53.389Z,15.00
2017-11-23T13:38:25.921Z,14.90
2017-11-23T13:40:59.193Z,14.90
2017-11-23T13:43:32.239Z,15.00
2017-11-23T13:46:04.773Z,14.90
2017-11-23T13:48:38.058Z,14.90
2017-11-23T13:51:10.918Z,14.90
2017-11-23T13:53:43.529Z,14.90
2017-11-23T13:56:16.674Z,14.90
2017-11-23T13:58:49.204Z,14.80
2017-11-23T14:01:21.811Z,14.80
2017-11-23T14:03:54.702Z,14.80
2017-11-23T14:06:28.690Z,14.70
2017-11-23T14:09:01.373Z,14.70
2017-11-23T14:11:34.668Z,14.60
2017-11-23T14:14:07.519Z,14.60
2017-11-23T14:16:39.870Z,14.60
2017-11-23T14:19:13.225Z,14.60
2017-11-23T14:21:46.385Z,14.60
2017-11-23T14:24:19.148Z,14.50
2017-11-23T14:26:51.654Z,14.50
2017-11-23T14:29:24.133Z,14.40
2017-11-23T14:31:58.170Z,14.40
2017-11-23T14:34:31.538Z,14.30
2017-11-23T14:37:04.657Z,14.30
2017-11-23T14:39:38.028Z,14.20
2017-11-23T14:42:10.594Z,14.20
2017-11-23T14:44:43.506Z,14.20
2017-11-23T14:47:16.201Z,14.10
2017-11-23T14:49:48.792Z,14.10
2017-11-23T14:52:22.666Z,13.90
2017-11-23T14:54:55.809Z,13.90
2017-11-23T14:57:29.147Z,13.80
2017-11-23T15:00:01.864Z,13.80
2017-11-23T15:02:34.419Z,13.70
2017-11-23T15:05:07.006Z,13.60
2017-11-23T15:07:40.317Z,13.60
2017-11-23T15:10:13.234Z,13.50
2017-11-23T15:12:45.841Z,13.40
2017-11-23T15:15:18.424Z,13.30
2017-11-23T15:17:50.897Z,13.20
2017-11-23T15:20:24.047Z,13.00
2017-11-23T15:22:56.793Z,13.00
2017-11-23T15:25:29.285Z,13.00
2017-11-23T15:28:02.668Z,12.90
2017-11-23T15:30:36.004Z,12.80
2017-11-23T15:33:09.606Z,12.60
2017-11-23T15:35:42.756Z,12.60
2017-11-23T15:38:16.082Z,12.50
2017-11-23T15:40:49.667Z,12.40
2017-11-23T15:43:22.410Z,12.40
2017-11-23T15:45:55.005Z,12.30
2017-11-23T15:48:27.817Z,12.30
2017-11-23T15:51:00.822Z,12.30
2017-11-23T15:53:33.589Z,12.30
2017-11-23T15:56:06.317Z,12.30
2017-11-23T15:58:39.576Z,12.30
2017-11-23T16:01:12.064Z,12.30
2017-11-23T16:03:44.568Z,12.30
2017-11-23T16:06:17.322Z,12.40
2017-11-23T16:08:49.860Z,12.40
2017-11-23T16:11:22.330Z,12.40
2017-11-23T16:14:02.633Z,12.40
2017-11-23T16:16:35.310Z,12.40
2017-11-23T16:19:07.948Z,12.50
2017-11-23T16:21:41.238Z,12.50
2017-11-23T16:24:13.879Z,12.50
2017-11-23T16:26:46.337Z,12.50
2017-11-23T16:29:18.856Z,12.50
2017-11-23T16:31:51.354Z,12.50
2017-11-23T16:34:23.832Z,12.50
2017-11-23T16:36:57.216Z,12.50
2017-11-23T16:39:31.699Z,12.50
2017-11-23T16:45:15.518Z,12.40
2017-11-23T16:47:54.362Z,12.40
2017-11-23T16:50:33.079Z,12.30
2017-11-23T16:53:09.182Z,12.30
2017-11-23T16:55:47.678Z,12.20
2017-11-23T16:58:26.457Z,12.10
2017-11-23T17:01:05.931Z,12.10
2017-11-23T17:03:48.973Z,11.90
2017-11-23T17:06:28.062Z,11.90
2017-11-23T17:09:03.292Z,11.70
2017-11-23T17:11:41.929Z,11.70
2017-11-23T17:14:16.564Z,11.70
2017-11-23T17:16:57.870Z,11.60
2017-11-23T17:19:31.036Z,11.50
2017-11-23T17:22:04.431Z,11.50
2017-11-23T17:24:37.379Z,11.40
2017-11-23T17:27:10.663Z,11.30
2017-11-23T17:29:44.875Z,11.10
2017-11-23T17:32:18.216Z,11.10
2017-11-23T17:34:50.963Z,11.10
2017-11-23T17:37:23.355Z,11.00
2017-11-23T17:39:55.803Z,10.90
2017-11-23T17:42:29.190Z,10.80
2017-11-23T17:45:01.623Z,10.70
2017-11-23T17:47:34.046Z,10.60
2017-11-23T17:50:06.631Z,10.50
2017-11-23T17:52:39.859Z,10.40
2017-11-23T17:55:13.271Z,10.30
2017-11-23T17:57:46.588Z,10.30
2017-11-23T18:00:19.192Z,10.20
2017-11-23T18:02:51.642Z,10.10
2017-11-23T18:05:25.082Z,10.00
2017-11-23T18:07:57.571Z,10.00
2017-11-23T18:10:30.810Z,9.80
2017-11-23T18:13:03.627Z,9.80
2017-11-23T18:15:36.086Z,9.70
2017-11-23T18:18:09.348Z,9.60
2017-11-23T18:20:42.933Z,9.60
2017-11-23T18:23:16.168Z,9.50
2017-11-23T18:25:48.590Z,9.40
2017-11-23T18:28:21.871Z,9.40
2017-11-23T18:30:54.277Z,9.30
2017-11-23T18:33:26.677Z,9.20
2017-11-23T18:35:59.249Z,9.10
2017-11-23T18:38:32.553Z,9.10
2017-11-23T18:41:06.013Z,9.00
2017-11-23T18:43:39.267Z,8.90
2017-11-23T18:46:11.783Z,8.90
2017-11-23T18:48:44.153Z,8.80
2017-11-23T18:51:16.687Z,8.80
2017-11-23T18:53:49.849Z,8.70
2017-11-23T18:56:22.754Z,8.70
2017-11-23T18:58:56.162Z,8.70
2017-11-23T19:01:28.709Z,8.60
2017-11-23T19:04:02.073Z,8.60
2017-11-23T19:06:35.400Z,8.50
2017-11-23T19:09:08.819Z,8.50
2017-11-23T19:11:41.310Z,8.50
2017-11-23T19:14:14.720Z,8.40
2017-11-23T19:16:48.111Z,8.40
2017-11-23T19:19:20.515Z,8.30
2017-11-23T19:21:52.942Z,8.30
2017-11-23T19:24:27.001Z,8.20
2017-11-23T19:26:59.736Z,8.20
2017-11-23T19:29:33.786Z,8.10
2017-11-23T19:32:06.592Z,8.10
2017-11-23T19:34:39.121Z,8.00
2017-11-23T19:37:11.630Z,8.00
2017-11-23T19:39:45.737Z,7.90
2017-11-23T19:42:18.437Z,7.90
2017-11-23T19:44:52.500Z,7.80
2017-11-23T19:47:25.948Z,7.80
2017-11-23T19:49:58.674Z,7.70
2017-11-23T19:52:32.046Z,7.80
2017-11-23T19:55:05.466Z,7.70
2017-11-23T19:57:37.965Z,7.70
2017-11-23T20:00:11.335Z,7.60
2017-11-23T20:02:44.822Z,7.60
2017-11-23T20:05:19.930Z,7.60
2017-11-23T20:07:52.522Z,7.50
2017-11-23T20:10:25.815Z,7.40
2017-11-23T20:12:58.399Z,7.40
2017-11-23T20:15:32.724Z,7.40
2017-11-23T20:18:06.039Z,7.40
2017-11-23T20:20:38.556Z,7.40
2017-11-23T20:23:11.773Z,7.40
2017-11-23T20:25:45.048Z,7.40
2017-11-23T20:28:19.103Z,7.50
2017-11-23T20:30:51.762Z,7.60
2017-11-23T20:33:25.792Z,7.80
2017-11-23T20:36:00.162Z,7.70
2017-11-23T20:38:33.612Z,7.80
2017-11-23T20:41:07.163Z,7.90
2017-11-23T20:43:39.743Z,7.90
2017-11-23T20:46:13.212Z,8.00
2017-11-23T20:48:46.649Z,8.10
2017-11-23T20:51:19.279Z,8.10
2017-11-23T20:53:53.248Z,8.20
2017-11-23T20:56:26.628Z,8.30
2017-11-23T20:58:59.926Z,8.30
2017-11-23T21:01:32.433Z,8.30
2017-11-23T21:04:05.085Z,8.40
2017-11-23T21:06:38.367Z,8.40
2017-11-23T21:09:11.795Z,8.40
2017-11-23T21:11:45.117Z,8.50
2017-11-23T21:14:18.504Z,8.50
2017-11-23T21:16:51.753Z,8.50
2017-11-23T21:19:24.375Z,8.50
2017-11-23T21:21:58.554Z,8.60
2017-11-23T21:24:31.325Z,8.60
2017-11-23T21:27:04.721Z,8.60
2017-11-23T21:29:37.124Z,8.60
2017-11-23T21:32:11.182Z,8.60
2017-11-23T21:34:43.902Z,8.60
2017-11-23T21:37:18.012Z,8.60
2017-11-23T21:39:50.746Z,8.60
2017-11-23T21:42:24.280Z,8.60
2017-11-23T21:44:57.492Z,8.60
2017-11-23T21:47:30.843Z,8.60
2017-11-23T21:50:03.235Z,8.60
2017-11-23T21:52:37.244Z,8.70
2017-11-23T21:55:10.419Z,8.60
2017-11-23T21:57:43.755Z,8.70
2017-11-23T22:00:17.283Z,8.70
2017-11-23T22:02:50.594Z,8.80
2017-11-23T22:05:22.990Z,8.80
2017-11-23T22:07:57.075Z,8.90
2017-11-23T22:10:29.826Z,8.90
2017-11-23T22:13:03.709Z,9.00
2017-11-23T22:15:36.600Z,9.00
2017-11-23T22:18:09.851Z,9.00
2017-11-23T22:20:43.255Z,9.10
2017-11-23T22:23:16.591Z,9.20
2017-11-23T22:25:50.028Z,9.20
2017-11-23T22:28:23.222Z,9.30
2017-11-23T22:30:56.514Z,9.50
2017-11-23T22:33:29.210Z,9.50
2017-11-23T22:36:01.910Z,9.50
2017-11-23T22:38:35.036Z,9.60
2017-11-23T22:41:07.418Z,9.60
2017-11-23T22:43:39.808Z,9.70
2017-11-23T22:46:12.981Z,9.70
2017-11-23T22:48:45.672Z,9.70
2017-11-23T22:51:19.004Z,9.80
2017-11-23T22:53:51.492Z,9.80
2017-11-23T22:56:23.898Z,9.80
2017-11-23T22:58:56.304Z,9.90
2017-11-23T23:01:36.768Z,9.90
2017-11-23T23:04:10.267Z,9.90
2017-11-23T23:06:42.862Z,9.90
2017-11-23T23:09:15.264Z,9.90
2017-11-23T23:11:48.630Z,9.90
2017-11-23T23:14:21.934Z,9.90
2017-11-23T23:16:55.294Z,9.90
2017-11-23T23:19:29.497Z,9.90
2017-11-23T23:22:01.834Z,9.90
2017-11-23T23:24:35.141Z,9.90
2017-11-23T23:27:08.367Z,9.90
2017-11-23T23:29:40.931Z,9.90
2017-11-23T23:32:14.416Z,9.90
2017-11-23T23:34:48.476Z,9.90
2017-11-23T23:37:21.200Z,9.90
2017-11-23T23:39:53.569Z,9.80
2017-11-23T23:42:26.090Z,9.80
2017-11-23T23:44:59.297Z,9.70
2017-11-23T23:47:32.097Z,9.70
2017-11-23T23:50:04.513Z,9.70
2017-11-23T23:52:36.952Z,9.70
2017-11-23T23:55:11.004Z,9.60
2017-11-23T23:57:43.975Z,9.60
